CheckWX is a tool to help pilots better visualize weather data.  It is not intended as a substitute for an official pre-flight weather briefing.

09:21:17 UTC

EPWA METAR
Warsaw Chopin Airport
Warsaw, Poland
Current

21 mins ago

EPWA 240900Z 31008KT 270V330 9999 FEW020 07/02 Q1024 NOSIG
Observed
Mar-24 @ 09:00 UTC
Wind
  • 310° at 8 KTS
Visibility
10,000+ meters
Flight Rules
VFR
Cloud Levels
  • Few at 2,000' AGL
Temperature
C / 45°F
Dewpoint
C / 36°F
Humidity
71%
Altimeter
30.24" Hg
Pressure
1023.92 hPa
Previous

51 mins ago

EPWA 240830Z 30009KT 9999 FEW016 07/01 Q1024 NOSIG
Observed
Mar-24 @ 08:30 UTC
Wind
  • 300° at 9 KTS
Visibility
10,000+ meters
Flight Rules
VFR
Cloud Levels
  • Few at 1,600' AGL
Temperature
C / 45°F
Dewpoint
C / 34°F
Humidity
66%
Altimeter
30.24" Hg
Pressure
1023.92 hPa
Previous

1 hour ago

EPWA 240800Z 31008KT 9999 FEW013 06/02 Q1024 NOSIG
Observed
Mar-24 @ 08:00 UTC
Wind
  • 310° at 8 KTS
Visibility
10,000+ meters
Flight Rules
VFR
Cloud Levels
  • Few at 1,300' AGL
Temperature
C / 43°F
Dewpoint
C / 36°F
Humidity
76%
Altimeter
30.24" Hg
Pressure
1023.92 hPa